Terminal Aerodrome Forecast
Issued by NWS

Home | Current Version | Previous Version | Graphics & Text | Print | Product List | Glossary On
Versions: 1 2 3 4 5 6 7 8 9 10 11 12 13 14
000
FTUS43 KMPX 210520
TAFAXN
TAF
KAXN 210520Z 2106/2206 31021G30KT P6SM SCT025 OVC050
      TEMPO 2107/2111 BKN025
     FM211100 31022G30KT P6SM OVC025
     FM211500 32024G33KT P6SM SCT150
     FM212200 32017G23KT P6SM SKC
     FM220100 32013KT P6SM SKC=

USA.gov is the U.S. government's official web portal to all federal, state and local government web resources and services.